Kidderminster, United Kingdom
Current Conditions -  °F | °C
As of 3:50 AM on Sunday 23 Nov 2014 (Local Time) from EGBB Reporting Station
Light Rain Light Rain  
Wind Chill: 44°   Ceiling: 4400
Heat Index: 46°   Visibility: 6mi
Dew Point: 46°   Wind: 5mph
Humidity: 100%   Direction: 300°WNW
Pressure: 30"   Gusts: NA
Location:  52.39°N, 2.25°W
Report Text: EGBB 230350Z 30004KT 9999 -RA FEW036 BKN044 08/08 Q1016
Loading
Personal Weather Stations






























Interactive Weather Map New forecast layout! Learn more

10-Day Weather Forecast

Advertisements
Track Severe Weather on mobile